Saint-Irenee, Canada
Current Conditions -  °F | °C
As of 8:00 PM on Tuesday 25 Nov 2014 (Local Time) from CYBG Reporting Station
Snow Showers Snow Showers  
Wind Chill: 31°   Ceiling: 2000
Heat Index: 37°   Visibility: 15mi
Dew Point: 32°   Wind: 9mph
Humidity: 81%   Direction: 290°WNW
Pressure: 29.73"   Gusts: NA
Location:  47.58°N, 70.21°W
Report Text: CYBG 260100Z 29008KT 15SM -SHRASN BKN020 OVC025 03/M00 A2973 RMK SC5SC3 SLP074
Loading
Personal Weather Stations






























Interactive Weather Map New forecast layout! Learn more

10-Day Weather Forecast

Advertisements
Track Severe Weather on mobile